Time;durP1;ratioP1;P1;durP2;ratioP2;P2;SDS_P1;SDS_P2;PMS_P1;PMS_P2;Temp;Humidity;BMP_temperature;BMP_pressure;BME280_temperature;BME280_humidity;BME280_pressure;Samples;Min_cycle;Max_cycle;Signal;HPM_P1;HPM_P2
2023/08/08 00:02:05;;;;;;;8.87;3.07;;;;;;;;;;5135241;27;20648;-89
2023/08/08 00:04:32;;;;;;;5.07;2.53;;;;;;;;;;5136239;27;20272;-90
2023/08/08 00:06:59;;;;;;;7.03;2.77;;;;;;;;;;5136133;28;20212;-90
2023/08/08 00:09:27;;;;;;;8.67;2.60;;;;;;;;;;5135269;27;20224;-90
2023/08/08 00:11:54;;;;;;;4.90;2.40;;;;;;;;;;5136114;27;20214;-90
2023/08/08 00:14:23;;;;;;;9.23;2.77;;;;;;;;;;5135657;28;20196;-90
2023/08/08 00:16:50;;;;;;;5.50;2.30;;;;;;;;;;5135713;28;20691;-91
2023/08/08 00:19:18;;;;;;;6.20;2.47;;;;;;;;;;5135215;27;20258;-89
2023/08/08 00:21:45;;;;;;;6.33;2.83;;;;;;;;;;5134837;28;20297;-89
2023/08/08 00:24:12;;;;;;;5.53;2.60;;;;;;;;;;5135505;28;20185;-89
2023/08/08 00:26:39;;;;;;;8.30;3.40;;;;;;;;;;5136501;27;20225;-91
2023/08/08 00:29:07;;;;;;;5.83;2.80;;;;;;;;;;5135926;27;20197;-92
2023/08/08 00:31:36;;;;;;;5.37;2.60;;;;;;;;;;5135974;28;20189;-90
2023/08/08 00:34:03;;;;;;;5.37;2.97;;;;;;;;;;5137460;28;20229;-90
2023/08/08 00:36:30;;;;;;;4.43;2.40;;;;;;;;;;5136990;27;20208;-90
2023/08/08 00:38:57;;;;;;;7.47;2.57;;;;;;;;;;5139942;27;20228;-90
2023/08/08 00:41:24;;;;;;;5.80;2.53;;;;;;;;;;5138856;27;20740;-90
2023/08/08 00:43:52;;;;;;;8.73;2.40;;;;;;;;;;5140028;27;20229;-89
2023/08/08 00:46:20;;;;;;;8.00;2.50;;;;;;;;;;5139987;27;20196;-90
2023/08/08 00:48:49;;;;;;;9.80;2.80;;;;;;;;;;5138884;27;20669;-89
2023/08/08 00:51:17;;;;;;;7.23;2.47;;;;;;;;;;5140258;27;20272;-90
2023/08/08 00:53:44;;;;;;;5.47;2.43;;;;;;;;;;5138707;27;20204;-90
2023/08/08 00:56:11;;;;;;;8.63;2.40;;;;;;;;;;5140595;27;20280;-90
2023/08/08 00:58:39;;;;;;;12.63;2.80;;;;;;;;;;5138756;27;20288;-89
2023/08/08 01:01:08;;;;;;;4.87;2.10;;;;;;;;;;5140223;27;20264;-90
2023/08/08 01:03:35;;;;;;;7.40;2.50;;;;;;;;;;5139656;27;20228;-90
2023/08/08 01:06:07;;;;;;;8.43;2.63;;;;;;;;;;5139781;27;20257;-90
2023/08/08 01:08:37;;;;;;;5.20;2.13;;;;;;;;;;5139341;27;20216;-90
2023/08/08 01:11:05;;;;;;;5.23;2.47;;;;;;;;;;5139090;27;20605;-90
2023/08/08 01:13:33;;;;;;;6.67;2.47;;;;;;;;;;5124975;27;20233;-90
2023/08/08 01:16:03;;;;;;;9.27;2.80;;;;;;;;;;5120987;27;20240;-89
2023/08/08 01:18:31;;;;;;;7.53;2.23;;;;;;;;;;5139460;27;20204;-90
2023/08/08 01:20:58;;;;;;;8.30;2.30;;;;;;;;;;5139651;27;20201;-90
2023/08/08 01:23:32;;;;;;;8.23;2.40;;;;;;;;;;5138883;27;20232;-90
2023/08/08 01:26:01;;;;;;;9.03;2.40;;;;;;;;;;5138891;27;20218;-90
2023/08/08 01:28:28;;;;;;;6.30;2.20;;;;;;;;;;5141318;27;20276;-90
2023/08/08 01:30:55;;;;;;;6.97;2.20;;;;;;;;;;5142074;27;20244;-89
2023/08/08 01:33:23;;;;;;;9.70;2.67;;;;;;;;;;5139925;27;20275;-90
2023/08/08 01:35:54;;;;;;;5.27;2.60;;;;;;;;;;5138578;27;20188;-90
2023/08/08 01:38:25;;;;;;;4.10;2.20;;;;;;;;;;5138630;27;20224;-89
2023/08/08 01:40:52;;;;;;;8.40;2.37;;;;;;;;;;5139388;27;20186;-90
2023/08/08 01:43:22;;;;;;;7.17;2.40;;;;;;;;;;5138466;27;20264;-91
2023/08/08 01:45:50;;;;;;;7.13;2.60;;;;;;;;;;5137484;27;20189;-90
2023/08/08 01:48:17;;;;;;;8.93;2.50;;;;;;;;;;5138227;27;20221;-90
2023/08/08 01:50:44;;;;;;;5.00;2.50;;;;;;;;;;5140086;27;20285;-89
2023/08/08 01:53:12;;;;;;;4.60;2.17;;;;;;;;;;5139509;27;20201;-90
2023/08/08 01:55:40;;;;;;;5.77;2.53;;;;;;;;;;5138107;27;20228;-89
2023/08/08 01:58:08;;;;;;;5.20;2.20;;;;;;;;;;5138392;27;20189;-90
2023/08/08 02:00:37;;;;;;;5.97;2.40;;;;;;;;;;5137696;27;20225;-90
2023/08/08 02:03:04;;;;;;;6.10;2.27;;;;;;;;;;5139107;27;20323;-90
2023/08/08 02:05:31;;;;;;;5.87;2.30;;;;;;;;;;5138402;27;20201;-89
2023/08/08 02:07:59;;;;;;;7.60;2.47;;;;;;;;;;5138764;27;20280;-90
2023/08/08 02:10:26;;;;;;;6.83;2.57;;;;;;;;;;5137909;27;20261;-90
2023/08/08 02:12:53;;;;;;;6.13;2.30;;;;;;;;;;5138077;27;20229;-90
2023/08/08 02:15:20;;;;;;;7.27;2.27;;;;;;;;;;5138040;27;20283;-89
2023/08/08 02:17:51;;;;;;;7.90;2.70;;;;;;;;;;5137596;27;20201;-89
2023/08/08 02:20:19;;;;;;;8.87;2.43;;;;;;;;;;5138470;27;20277;-90
2023/08/08 02:22:46;;;;;;;7.53;2.90;;;;;;;;;;5137567;27;20677;-89
2023/08/08 02:25:14;;;;;;;7.03;2.70;;;;;;;;;;5140046;27;20305;-89
2023/08/08 02:27:41;;;;;;;8.60;3.17;;;;;;;;;;5137851;27;20296;-89
2023/08/08 02:30:09;;;;;;;7.13;2.97;;;;;;;;;;5139104;27;20212;-89
2023/08/08 02:32:36;;;;;;;8.30;2.63;;;;;;;;;;5137091;27;20657;-89
2023/08/08 02:35:05;;;;;;;5.33;2.30;;;;;;;;;;5138070;27;20220;-89
2023/08/08 02:37:32;;;;;;;6.40;2.40;;;;;;;;;;5137858;27;20225;-89
2023/08/08 02:40:00;;;;;;;9.70;2.97;;;;;;;;;;5136054;27;20197;-90
2023/08/08 02:42:27;;;;;;;10.40;3.13;;;;;;;;;;5137367;27;20307;-89
2023/08/08 02:44:54;;;;;;;7.30;2.50;;;;;;;;;;5136649;27;20221;-90
2023/08/08 02:47:21;;;;;;;6.83;2.40;;;;;;;;;;5136806;27;20212;-89
2023/08/08 02:49:48;;;;;;;5.37;2.57;;;;;;;;;;5138051;27;20192;-90
2023/08/08 02:52:17;;;;;;;7.07;2.70;;;;;;;;;;5136127;27;20293;-89
2023/08/08 02:54:44;;;;;;;6.83;2.70;;;;;;;;;;5137400;27;20192;-89
2023/08/08 02:57:12;;;;;;;5.60;2.50;;;;;;;;;;5136800;27;20209;-89
2023/08/08 02:59:39;;;;;;;6.87;2.87;;;;;;;;;;5137046;27;20224;-89
2023/08/08 03:02:06;;;;;;;6.23;2.67;;;;;;;;;;5136585;27;20216;-89
2023/08/08 03:04:34;;;;;;;5.27;2.60;;;;;;;;;;5136968;27;20217;-89
2023/08/08 03:07:03;;;;;;;7.93;2.83;;;;;;;;;;5136446;27;20253;-89
2023/08/08 03:09:32;;;;;;;5.97;2.67;;;;;;;;;;5137256;27;20224;-89
2023/08/08 03:11:59;;;;;;;4.77;2.57;;;;;;;;;;5136660;27;20216;-89
2023/08/08 03:14:27;;;;;;;6.30;2.33;;;;;;;;;;5136879;27;20287;-89
2023/08/08 03:16:54;;;;;;;6.30;2.63;;;;;;;;;;5125912;27;20206;-89
2023/08/08 03:19:22;;;;;;;5.73;2.63;;;;;;;;;;5115430;28;20205;-90
2023/08/08 03:21:49;;;;;;;5.43;2.70;;;;;;;;;;5115809;28;20190;-88
2023/08/08 03:24:16;;;;;;;5.37;2.50;;;;;;;;;;5115298;28;20732;-89
2023/08/08 03:26:45;;;;;;;7.20;2.83;;;;;;;;;;5115886;28;20252;-89
2023/08/08 03:29:12;;;;;;;4.83;2.60;;;;;;;;;;5116439;28;20216;-89
2023/08/08 03:31:39;;;;;;;6.67;2.47;;;;;;;;;;5115497;28;20198;-89
2023/08/08 03:34:07;;;;;;;8.10;2.80;;;;;;;;;;5117211;28;20224;-89
2023/08/08 03:36:34;;;;;;;7.60;2.47;;;;;;;;;;5116698;28;20666;-89
2023/08/08 03:39:03;;;;;;;7.40;2.80;;;;;;;;;;5116764;28;20261;-89
2023/08/08 03:41:30;;;;;;;6.40;2.60;;;;;;;;;;5115183;28;20201;-90
2023/08/08 03:43:59;;;;;;;7.40;2.93;;;;;;;;;;5115971;28;20300;-90
2023/08/08 03:46:26;;;;;;;5.77;2.90;;;;;;;;;;5115183;28;20232;-89
2023/08/08 03:48:53;;;;;;;4.07;2.80;;;;;;;;;;5114515;28;20224;-89
2023/08/08 03:51:21;;;;;;;6.57;2.87;;;;;;;;;;5115265;28;20286;-90
2023/08/08 03:53:48;;;;;;;7.63;2.83;;;;;;;;;;5115723;28;20289;-90
2023/08/08 03:56:15;;;;;;;4.33;2.67;;;;;;;;;;5115042;28;20194;-89
2023/08/08 03:58:42;;;;;;;6.37;2.93;;;;;;;;;;5115067;28;20251;-90
2023/08/08 04:01:11;;;;;;;6.30;2.70;;;;;;;;;;5114637;28;20241;-89
2023/08/08 04:03:39;;;;;;;9.07;2.80;;;;;;;;;;5114984;28;20316;-89
2023/08/08 04:06:06;;;;;;;8.33;3.30;;;;;;;;;;5114810;28;20285;-89
2023/08/08 04:08:33;;;;;;;9.03;2.80;;;;;;;;;;5114453;28;20816;-89
2023/08/08 04:11:01;;;;;;;5.67;2.70;;;;;;;;;;5115022;28;20221;-89
2023/08/08 04:13:28;;;;;;;8.00;2.67;;;;;;;;;;5117693;28;20225;-89
2023/08/08 04:15:55;;;;;;;10.17;2.50;;;;;;;;;;5120847;27;20186;-89
2023/08/08 04:18:24;;;;;;;7.63;2.60;;;;;;;;;;5139272;27;20181;-89
2023/08/08 04:20:51;;;;;;;8.00;3.00;;;;;;;;;;5140447;27;20208;-90
2023/08/08 04:23:18;;;;;;;7.23;3.13;;;;;;;;;;5139550;27;20256;-88
2023/08/08 04:25:46;;;;;;;6.93;2.30;;;;;;;;;;5139282;27;20281;-90
2023/08/08 04:28:13;;;;;;;5.00;2.27;;;;;;;;;;5140269;27;20633;-89
2023/08/08 04:30:41;;;;;;;5.37;2.37;;;;;;;;;;5140052;27;20652;-89
2023/08/08 04:33:08;;;;;;;4.97;2.37;;;;;;;;;;5139047;27;20220;-89
2023/08/08 04:35:36;;;;;;;5.90;2.47;;;;;;;;;;5140080;27;20197;-89
2023/08/08 04:38:04;;;;;;;5.70;2.20;;;;;;;;;;5138865;27;20236;-88
2023/08/08 04:40:31;;;;;;;6.03;2.63;;;;;;;;;;5138951;27;20193;-89
2023/08/08 04:42:58;;;;;;;4.00;2.50;;;;;;;;;;5140188;27;20308;-90
2023/08/08 04:45:27;;;;;;;5.30;2.40;;;;;;;;;;5139170;27;20729;-89
2023/08/08 04:47:54;;;;;;;8.17;2.40;;;;;;;;;;5139520;27;20189;-89
2023/08/08 04:50:21;;;;;;;4.30;2.30;;;;;;;;;;5139480;27;20196;-89
2023/08/08 04:52:50;;;;;;;7.30;2.70;;;;;;;;;;5138957;27;20217;-89
2023/08/08 04:55:17;;;;;;;10.37;2.90;;;;;;;;;;5138654;27;20254;-89
2023/08/08 04:57:44;;;;;;;5.60;2.40;;;;;;;;;;5140234;27;20308;-90
2023/08/08 05:00:13;;;;;;;7.37;2.83;;;;;;;;;;5139267;27;20324;-89
2023/08/08 05:02:41;;;;;;;5.33;2.47;;;;;;;;;;5139751;27;20246;-89
2023/08/08 05:05:09;;;;;;;5.47;2.70;;;;;;;;;;5138586;27;20207;-89
2023/08/08 05:07:37;;;;;;;5.03;2.67;;;;;;;;;;5139845;27;20212;-89
2023/08/08 05:10:07;;;;;;;6.43;2.53;;;;;;;;;;5138090;27;20288;-88
2023/08/08 05:12:35;;;;;;;6.20;2.50;;;;;;;;;;5138699;27;20191;-89
2023/08/08 05:15:02;;;;;;;6.83;2.40;;;;;;;;;;5138530;27;20280;-89
2023/08/08 05:17:31;;;;;;;9.33;2.80;;;;;;;;;;5123050;27;20204;-89
2023/08/08 05:20:00;;;;;;;4.50;2.40;;;;;;;;;;5117880;28;20181;-89
2023/08/08 05:22:27;;;;;;;5.23;2.90;;;;;;;;;;5118223;28;20189;-89
2023/08/08 05:24:54;;;;;;;8.70;2.80;;;;;;;;;;5117203;28;20230;-88
2023/08/08 05:27:23;;;;;;;8.27;2.73;;;;;;;;;;5118825;28;20721;-88
2023/08/08 05:29:50;;;;;;;4.90;2.53;;;;;;;;;;5117265;28;20289;-88
2023/08/08 05:32:17;;;;;;;6.00;2.50;;;;;;;;;;5119185;28;20186;-89
2023/08/08 05:34:44;;;;;;;7.93;2.60;;;;;;;;;;5119338;28;20209;-89
2023/08/08 05:37:12;;;;;;;7.73;2.97;;;;;;;;;;5118807;28;20221;-92
2023/08/08 05:39:39;;;;;;;7.73;2.40;;;;;;;;;;5117009;28;20228;-89
2023/08/08 05:42:07;;;;;;;6.10;2.40;;;;;;;;;;5117363;28;20939;-89
2023/08/08 05:44:35;;;;;;;7.53;2.90;;;;;;;;;;5117284;28;20669;-89
2023/08/08 05:47:02;;;;;;;5.47;2.70;;;;;;;;;;5117250;28;20209;-89
2023/08/08 05:49:29;;;;;;;8.13;3.10;;;;;;;;;;5117749;28;20225;-89
2023/08/08 05:51:57;;;;;;;6.83;2.83;;;;;;;;;;5116900;28;20218;-89
2023/08/08 05:54:24;;;;;;;4.60;2.47;;;;;;;;;;5117381;28;20258;-89
2023/08/08 05:56:51;;;;;;;7.53;2.53;;;;;;;;;;5117573;28;20225;-89
2023/08/08 05:59:19;;;;;;;7.07;2.90;;;;;;;;;;5117064;28;20182;-89
2023/08/08 06:01:47;;;;;;;7.07;2.80;;;;;;;;;;5116131;27;20785;-89
2023/08/08 06:04:15;;;;;;;7.00;3.00;;;;;;;;;;5117131;28;20313;-89
2023/08/08 06:06:43;;;;;;;5.73;3.10;;;;;;;;;;5118422;28;20282;-90
2023/08/08 06:09:11;;;;;;;7.78;2.95;;;;;;;;;;5117706;28;20196;-90
2023/08/08 06:11:38;;;;;;;7.78;2.80;;;;;;;;;;5116587;28;20570;-90
2023/08/08 06:14:05;;;;;;;4.47;2.40;;;;;;;;;;5117220;28;20192;-89
2023/08/08 06:16:33;;;;;;;6.05;2.40;;;;;;;;;;5124289;27;20205;-89
2023/08/08 06:19:02;;;;;;;5.15;2.08;;;;;;;;;;5138687;27;20197;-90
2023/08/08 06:21:29;;;;;;;6.07;2.33;;;;;;;;;;5138324;27;20572;-90
2023/08/08 06:23:57;;;;;;;5.70;1.80;;;;;;;;;;5136888;27;20251;-89
2023/08/08 06:26:24;;;;;;;4.80;1.88;;;;;;;;;;5137162;27;20234;-90
2023/08/08 06:28:52;;;;;;;6.50;2.00;;;;;;;;;;5138631;27;20201;-90
2023/08/08 06:31:19;;;;;;;5.68;1.70;;;;;;;;;;5137596;27;20190;-91
2023/08/08 06:33:47;;;;;;;4.88;1.67;;;;;;;;;;5137630;27;20736;-91
2023/08/08 06:36:16;;;;;;;4.13;1.70;;;;;;;;;;5136623;27;20220;-90
2023/08/08 06:38:43;;;;;;;5.47;1.55;;;;;;;;;;5136565;27;20199;-90
2023/08/08 06:41:10;;;;;;;4.88;1.67;;;;;;;;;;5137778;27;20272;-91
2023/08/08 06:43:38;;;;;;;4.40;1.30;;;;;;;;;;5136486;27;20709;-91
2023/08/08 06:46:05;;;;;;;5.38;1.63;;;;;;;;;;5136920;27;20201;-91
2023/08/08 06:48:32;;;;;;;6.38;1.63;;;;;;;;;;5137817;27;20240;-91
2023/08/08 06:50:59;;;;;;;8.98;2.08;;;;;;;;;;5138449;27;20225;-92
2023/08/08 06:53:28;;;;;;;9.45;1.92;;;;;;;;;;5138552;27;20243;-92
2023/08/08 06:55:55;;;;;;;7.03;1.65;;;;;;;;;;5139442;27;20228;-91
2023/08/08 06:58:23;;;;;;;6.88;1.80;;;;;;;;;;5139450;27;20197;-92
2023/08/08 07:00:50;;;;;;;5.32;1.50;;;;;;;;;;5138662;27;20267;-92
2023/08/08 07:03:18;;;;;;;4.15;1.58;;;;;;;;;;5137959;27;20197;-92
2023/08/08 07:05:51;;;;;;;7.03;1.83;;;;;;;;;;5138290;27;20248;-91
2023/08/08 07:08:18;;;;;;;4.20;1.60;;;;;;;;;;5139661;27;20218;-93
2023/08/08 07:10:48;;;;;;;5.45;1.60;;;;;;;;;;5137180;27;20197;-92
2023/08/08 07:13:15;;;;;;;3.55;1.55;;;;;;;;;;5138473;27;20197;-92
2023/08/08 07:15:43;;;;;;;4.85;1.70;;;;;;;;;;5137532;27;20205;-93
2023/08/08 07:18:10;;;;;;;4.10;1.48;;;;;;;;;;5138606;27;20231;-92
2023/08/08 07:20:39;;;;;;;3.90;1.35;;;;;;;;;;5138131;27;20193;-91
2023/08/08 07:23:06;;;;;;;3.78;1.38;;;;;;;;;;5137390;27;20216;-92
2023/08/08 07:25:33;;;;;;;6.35;1.77;;;;;;;;;;5136327;27;20225;-92
2023/08/08 07:28:02;;;;;;;5.13;1.35;;;;;;;;;;5137656;27;20227;-92
2023/08/08 07:30:29;;;;;;;4.00;1.30;;;;;;;;;;5137754;27;20291;-92
2023/08/08 07:32:56;;;;;;;4.68;1.40;;;;;;;;;;5137809;27;20186;-92
2023/08/08 07:35:24;;;;;;;3.40;1.63;;;;;;;;;;5136977;27;20292;-93
2023/08/08 07:37:51;;;;;;;3.75;1.48;;;;;;;;;;5137245;27;20224;-93
2023/08/08 07:40:19;;;;;;;5.80;1.70;;;;;;;;;;5137265;27;20213;-91
2023/08/08 07:42:46;;;;;;;4.28;1.30;;;;;;;;;;5135749;27;20205;-93
2023/08/08 07:45:15;;;;;;;4.85;1.23;;;;;;;;;;5136809;27;20584;-93
2023/08/08 07:47:43;;;;;;;3.30;1.67;;;;;;;;;;5136963;27;20257;-93
2023/08/08 07:50:10;;;;;;;4.30;1.20;;;;;;;;;;5137149;27;20618;-93
2023/08/08 07:52:38;;;;;;;4.55;1.60;;;;;;;;;;5137234;27;20261;-93
2023/08/08 07:55:06;;;;;;;3.58;1.40;;;;;;;;;;5135998;27;20935;-93
2023/08/08 07:57:34;;;;;;;2.97;1.00;;;;;;;;;;5138174;27;20217;-94
2023/08/08 08:00:07;;;;;;;4.60;1.40;;;;;;;;;;5135839;27;20261;-94
2023/08/08 08:02:36;;;;;;;3.75;1.63;;;;;;;;;;5136854;27;20196;-95
2023/08/08 08:05:06;;;;;;;3.38;1.25;;;;;;;;;;5136181;28;20254;-94
2023/08/08 08:07:33;;;;;;;2.28;1.20;;;;;;;;;;5136590;28;20245;-94
2023/08/08 08:10:01;;;;;;;4.03;1.30;;;;;;;;;;5135702;28;20205;-94
2023/08/08 08:12:28;;;;;;;3.88;1.45;;;;;;;;;;5136754;28;20185;-93
2023/08/08 08:14:55;;;;;;;5.20;1.48;;;;;;;;;;5136104;28;20673;-94
2023/08/08 08:17:22;;;;;;;5.72;1.42;;;;;;;;;;5134998;27;20608;-93
2023/08/08 08:19:51;;;;;;;3.38;1.27;;;;;;;;;;5135130;28;20233;-94
2023/08/08 08:22:19;;;;;;;3.30;1.40;;;;;;;;;;5136299;27;20639;-94
2023/08/08 08:24:46;;;;;;;3.65;1.20;;;;;;;;;;5136703;28;20244;-94
2023/08/08 08:27:14;;;;;;;3.38;1.33;;;;;;;;;;5136180;28;20222;-93
2023/08/08 08:29:41;;;;;;;4.90;1.33;;;;;;;;;;5136713;27;20194;-94
2023/08/08 08:32:08;;;;;;;3.42;1.13;;;;;;;;;;5135579;27;20284;-94
2023/08/08 08:34:36;;;;;;;2.92;1.20;;;;;;;;;;5135775;28;20608;-95
2023/08/08 08:37:05;;;;;;;3.30;1.38;;;;;;;;;;5135364;28;20215;-95
2023/08/08 08:39:34;;;;;;;5.30;1.50;;;;;;;;;;5135843;28;20240;-95
2023/08/08 08:42:04;;;;;;;3.70;1.30;;;;;;;;;;5134668;28;20238;-95
2023/08/08 08:44:32;;;;;;;4.03;1.30;;;;;;;;;;5135275;28;20220;-94
2023/08/08 08:47:01;;;;;;;5.22;1.58;;;;;;;;;;5135140;27;20278;-94
2023/08/08 08:49:31;;;;;;;8.82;1.80;;;;;;;;;;5135401;27;20229;-95
2023/08/08 08:52:00;;;;;;;5.00;1.77;;;;;;;;;;5135667;28;20239;-96
2023/08/08 08:54:29;;;;;;;8.27;3.03;;;;;;;;;;5134688;28;20284;-94
2023/08/08 08:56:57;;;;;;;4.53;1.90;;;;;;;;;;5134772;28;20196;-95
2023/08/08 08:59:24;;;;;;;4.30;1.27;;;;;;;;;;5137274;27;20276;-94
2023/08/08 09:01:52;;;;;;;3.53;1.50;;;;;;;;;;5137910;27;20229;-95
2023/08/08 09:04:21;;;;;;;3.67;1.58;;;;;;;;;;5138900;27;20777;-94
2023/08/08 09:06:49;;;;;;;3.92;1.50;;;;;;;;;;5137870;27;20275;-94
2023/08/08 09:09:17;;;;;;;4.55;1.50;;;;;;;;;;5138241;27;20229;-95
2023/08/08 09:11:47;;;;;;;6.10;2.33;;;;;;;;;;5138820;27;20589;-95
2023/08/08 09:14:18;;;;;;;4.15;1.58;;;;;;;;;;5138307;27;20224;-94
2023/08/08 09:16:47;;;;;;;3.42;1.45;;;;;;;;;;5139038;27;20237;-96
2023/08/08 09:19:14;;;;;;;3.08;1.50;;;;;;;;;;5138943;27;20193;-96
2023/08/08 09:21:41;;;;;;;3.00;1.25;;;;;;;;;;5139727;27;20268;-96
2023/08/08 09:24:09;;;;;;;3.22;1.60;;;;;;;;;;5139458;27;20223;-95
2023/08/08 09:26:36;;;;;;;3.85;1.77;;;;;;;;;;5141803;27;20228;-96
2023/08/08 09:29:06;;;;;;;6.03;1.75;;;;;;;;;;5140291;27;20222;-96
2023/08/08 09:31:33;;;;;;;5.68;2.10;;;;;;;;;;5140963;27;20264;-95
2023/08/08 09:34:01;;;;;;;2.17;1.50;;;;;;;;;;5139651;27;20226;-96
2023/08/08 09:36:28;;;;;;;3.80;1.50;;;;;;;;;;5140874;27;20250;-96
2023/08/08 09:38:57;;;;;;;2.70;1.40;;;;;;;;;;5141219;27;20325;-96
2023/08/08 09:41:29;;;;;;;4.15;1.50;;;;;;;;;;5140171;27;20193;-96
2023/08/08 09:43:56;;;;;;;5.15;1.70;;;;;;;;;;5139295;27;20193;-96
2023/08/08 09:46:25;;;;;;;3.38;1.48;;;;;;;;;;5137926;27;20228;-96
2023/08/08 09:48:53;;;;;;;4.53;1.33;;;;;;;;;;5138642;27;20193;-96
2023/08/08 09:51:22;;;;;;;3.45;1.40;;;;;;;;;;5138088;27;20197;-95
2023/08/08 09:53:50;;;;;;;4.00;1.33;;;;;;;;;;5138798;27;20217;-96
2023/08/08 09:56:18;;;;;;;4.68;1.63;;;;;;;;;;5138600;27;20564;-95
2023/08/08 09:58:45;;;;;;;3.67;1.38;;;;;;;;;;5138201;27;20283;-96
2023/08/08 10:01:13;;;;;;;4.30;1.60;;;;;;;;;;5138645;27;20253;-96
2023/08/08 10:03:43;;;;;;;1.88;1.30;;;;;;;;;;5145452;27;20189;-96
2023/08/08 10:06:10;;;;;;;2.33;1.35;;;;;;;;;;5146953;27;20566;-96
2023/08/08 10:08:37;;;;;;;2.17;1.30;;;;;;;;;;5144001;27;20228;-86
2023/08/08 10:11:07;;;;;;;2.58;1.48;;;;;;;;;;5141960;27;20233;-96
2023/08/08 10:13:34;;;;;;;3.67;1.98;;;;;;;;;;5141803;27;20200;-96
2023/08/08 10:16:06;;;;;;;3.30;1.63;;;;;;;;;;5139786;27;20272;-96
2023/08/08 10:18:33;;;;;;;3.97;1.70;;;;;;;;;;5139717;27;20237;-96
2023/08/08 10:21:02;;;;;;;4.65;1.63;;;;;;;;;;5145651;27;20217;-96
2023/08/08 10:23:37;;;;;;;4.28;1.77;;;;;;;;;;5144146;27;20189;-96
2023/08/08 10:26:04;;;;;;;3.53;1.55;;;;;;;;;;5143037;27;20231;-96
2023/08/08 10:28:33;;;;;;;6.18;1.60;;;;;;;;;;5142973;27;20192;-96
2023/08/08 10:31:01;;;;;;;3.70;1.60;;;;;;;;;;5143496;27;20220;-96
2023/08/08 10:33:29;;;;;;;3.00;1.60;;;;;;;;;;5142217;27;20243;-96
2023/08/08 10:35:59;;;;;;;5.65;1.60;;;;;;;;;;5140337;27;20224;-95
2023/08/08 10:38:28;;;;;;;3.33;1.92;;;;;;;;;;5142380;27;20220;-96
2023/08/08 10:40:57;;;;;;;3.90;1.88;;;;;;;;;;5143162;27;20287;-96
2023/08/08 10:43:27;;;;;;;2.50;1.67;;;;;;;;;;5142955;27;20230;-96
2023/08/08 10:45:56;;;;;;;3.60;1.95;;;;;;;;;;5142751;27;20217;-95
2023/08/08 10:48:23;;;;;;;3.60;1.60;;;;;;;;;;5146909;27;20193;-96
2023/08/08 10:50:50;;;;;;;5.43;1.95;;;;;;;;;;5144918;27;20213;-96
2023/08/08 10:53:18;;;;;;;3.92;1.48;;;;;;;;;;5146030;27;20288;-95
2023/08/08 10:55:46;;;;;;;3.45;1.60;;;;;;;;;;5147422;27;20692;-96
2023/08/08 10:58:17;;;;;;;2.03;1.70;;;;;;;;;;5145138;27;20615;-96
2023/08/08 11:00:47;;;;;;;3.58;1.42;;;;;;;;;;5144063;27;20264;-96
2023/08/08 11:03:15;;;;;;;4.15;1.70;;;;;;;;;;5145801;27;20189;-95
2023/08/08 11:05:48;;;;;;;3.92;1.85;;;;;;;;;;5141726;27;20237;-95
2023/08/08 11:08:17;;;;;;;2.92;1.23;;;;;;;;;;5144327;27;20189;-96
2023/08/08 11:10:45;;;;;;;2.95;1.20;;;;;;;;;;5145966;27;20196;-95
2023/08/08 11:15:56;;;;;;;3.15;1.30;;;;;;;;;;5148030;27;20197;-95
2023/08/08 11:18:25;;;;;;;2.72;1.40;;;;;;;;;;5143785;27;20201;-95
2023/08/08 11:21:04;;;;;;;2.55;1.30;;;;;;;;;;5141779;27;20193;-95
2023/08/08 11:23:37;;;;;;;4.35;1.77;;;;;;;;;;5145079;27;20625;-95
2023/08/08 11:26:06;;;;;;;2.67;1.48;;;;;;;;;;5142926;27;20754;-94
2023/08/08 11:28:43;;;;;;;3.13;1.40;;;;;;;;;;5143399;27;20197;-96
2023/08/08 11:31:28;;;;;;;2.65;1.70;;;;;;;;;;5147799;27;20185;-96
2023/08/08 11:33:58;;;;;;;2.70;1.25;;;;;;;;;;5144104;27;20193;-95
2023/08/08 11:36:25;;;;;;;3.40;1.40;;;;;;;;;;5143594;27;20293;-95
2023/08/08 11:38:53;;;;;;;3.25;1.50;;;;;;;;;;5143152;27;20656;-95
2023/08/08 11:41:26;;;;;;;2.85;1.50;;;;;;;;;;5145980;27;20224;-95
2023/08/08 11:46:57;;;;;;;3.13;1.50;;;;;;;;;;5142128;27;20618;-96
2023/08/08 11:52:12;;;;;;;3.55;1.40;;;;;;;;;;5142870;27;20193;-95
2023/08/08 11:54:47;;;;;;;4.40;1.77;;;;;;;;;;5143701;27;20219;-96
2023/08/08 11:57:20;;;;;;;1.98;1.27;;;;;;;;;;5141923;27;20200;-95
2023/08/08 11:59:54;;;;;;;2.00;1.33;;;;;;;;;;5146664;27;20254;-96
2023/08/08 12:02:24;;;;;;;4.13;1.48;;;;;;;;;;5142074;27;20254;-96
2023/08/08 12:07:40;;;;;;;3.85;1.48;;;;;;;;;;5147818;28;20243;-96
2023/08/08 12:10:17;;;;;;;3.22;1.50;;;;;;;;;;5147384;27;20205;-95
2023/08/08 12:15:47;;;;;;;2.67;1.10;;;;;;;;;;5151134;28;20201;-95
2023/08/08 12:18:18;;;;;;;3.17;1.30;;;;;;;;;;5148803;28;20769;-95
2023/08/08 12:20:46;;;;;;;6.05;1.65;;;;;;;;;;5145914;28;20218;-95
2023/08/08 12:23:19;;;;;;;2.75;1.48;;;;;;;;;;5147126;28;20250;-95
2023/08/08 12:25:48;;;;;;;3.78;1.20;;;;;;;;;;5149745;27;20216;-95
2023/08/08 12:28:15;;;;;;;2.75;1.30;;;;;;;;;;5138852;28;20189;-95
2023/08/08 12:33:31;;;;;;;2.85;1.50;;;;;;;;;;5142695;27;20212;-96
2023/08/08 12:36:01;;;;;;;3.50;1.30;;;;;;;;;;5142189;27;20201;-96
2023/08/08 12:38:28;;;;;;;2.90;1.33;;;;;;;;;;5147282;27;20193;-95
2023/08/08 12:44:51;;;;;;;4.78;1.40;;;;;;;;;;5145974;27;20189;-96
2023/08/08 12:47:23;;;;;;;3.15;1.50;;;;;;;;;;5150067;27;20330;-96
2023/08/08 12:50:05;;;;;;;4.00;1.55;;;;;;;;;;5152112;27;20201;-95
2023/08/08 12:52:39;;;;;;;1.63;0.93;;;;;;;;;;5150972;27;20280;-95
2023/08/08 12:55:11;;;;;;;5.18;1.58;;;;;;;;;;5147010;27;20265;-96
2023/08/08 12:57:42;;;;;;;3.17;1.25;;;;;;;;;;5145744;27;20238;-95
2023/08/08 13:00:23;;;;;;;2.42;1.40;;;;;;;;;;5148368;27;20197;-95
2023/08/08 13:02:55;;;;;;;3.70;1.58;;;;;;;;;;5149355;27;20280;-95
2023/08/08 13:05:23;;;;;;;2.70;1.27;;;;;;;;;;5151131;27;20203;-96
2023/08/08 13:07:52;;;;;;;5.05;1.27;;;;;;;;;;5149585;27;20182;-96
2023/08/08 13:10:20;;;;;;;2.85;1.40;;;;;;;;;;5149390;27;20189;-95
2023/08/08 13:12:47;;;;;;;4.80;1.33;;;;;;;;;;5150485;27;20189;-96
2023/08/08 13:15:15;;;;;;;3.00;1.27;;;;;;;;;;5147805;27;20199;-96
2023/08/08 13:17:42;;;;;;;3.78;1.45;;;;;;;;;;5149350;27;20197;-95
2023/08/08 13:20:10;;;;;;;2.47;1.35;;;;;;;;;;5147631;27;20198;-96
2023/08/08 13:22:38;;;;;;;2.80;1.40;;;;;;;;;;5148076;27;20185;-96
2023/08/08 13:25:07;;;;;;;3.20;1.30;;;;;;;;;;5149229;27;20215;-96
2023/08/08 13:27:34;;;;;;;3.70;1.25;;;;;;;;;;5147847;27;20247;-96
2023/08/08 13:30:01;;;;;;;4.45;1.38;;;;;;;;;;5146797;27;20220;-96
2023/08/08 13:32:30;;;;;;;3.30;1.35;;;;;;;;;;5147536;27;20253;-95
2023/08/08 13:35:00;;;;;;;3.28;1.33;;;;;;;;;;5142062;27;20234;-94
2023/08/08 13:37:29;;;;;;;2.00;1.20;;;;;;;;;;5146912;27;20583;-95
2023/08/08 13:40:06;;;;;;;3.70;1.17;;;;;;;;;;5150279;27;20225;-96
2023/08/08 13:42:50;;;;;;;4.47;1.70;;;;;;;;;;5148502;27;20189;-96
2023/08/08 13:45:17;;;;;;;3.75;1.40;;;;;;;;;;5138575;27;20245;-96
2023/08/08 13:47:45;;;;;;;1.67;1.40;;;;;;;;;;5140378;27;20664;-94
2023/08/08 13:50:13;;;;;;;2.38;1.25;;;;;;;;;;5140333;27;20617;-95
2023/08/08 13:52:40;;;;;;;3.17;1.27;;;;;;;;;;5140034;27;20572;-95
2023/08/08 13:55:09;;;;;;;3.97;1.60;;;;;;;;;;5142609;27;20197;-95
2023/08/08 13:57:37;;;;;;;5.28;1.40;;;;;;;;;;5139087;27;20608;-96
2023/08/08 14:00:14;;;;;;;2.65;1.27;;;;;;;;;;5143055;27;20185;-95
2023/08/08 14:02:43;;;;;;;3.00;1.35;;;;;;;;;;5141514;27;20233;-96
2023/08/08 14:05:10;;;;;;;6.60;1.38;;;;;;;;;;5142430;27;20261;-95
2023/08/08 14:07:37;;;;;;;3.63;1.50;;;;;;;;;;5139641;27;20757;-96
2023/08/08 14:10:09;;;;;;;3.45;1.30;;;;;;;;;;5141273;27;20197;-95
2023/08/08 14:12:37;;;;;;;2.20;1.20;;;;;;;;;;5140958;27;20205;-95
2023/08/08 14:15:05;;;;;;;3.45;1.30;;;;;;;;;;5140213;27;20232;-95
2023/08/08 14:17:34;;;;;;;5.47;1.50;;;;;;;;;;5139575;27;20563;-96
2023/08/08 14:20:02;;;;;;;3.75;1.42;;;;;;;;;;5140805;27;20201;-96
2023/08/08 14:22:29;;;;;;;3.38;1.40;;;;;;;;;;5139756;27;20284;-95
2023/08/08 14:24:56;;;;;;;4.82;1.65;;;;;;;;;;5138705;27;20624;-96
2023/08/08 14:27:24;;;;;;;4.75;1.52;;;;;;;;;;5137489;27;20240;-96
2023/08/08 14:29:51;;;;;;;3.65;1.60;;;;;;;;;;5139774;27;20254;-95
2023/08/08 14:32:18;;;;;;;5.03;1.50;;;;;;;;;;5140535;27;20205;-96
2023/08/08 14:34:47;;;;;;;5.30;1.50;;;;;;;;;;5138267;27;20193;-95
2023/08/08 14:37:15;;;;;;;3.45;1.67;;;;;;;;;;5137880;27;20262;-95
2023/08/08 14:39:42;;;;;;;3.20;1.55;;;;;;;;;;5137020;27;20193;-96
2023/08/08 14:42:09;;;;;;;4.45;1.58;;;;;;;;;;5137166;27;20205;-95
2023/08/08 14:44:37;;;;;;;3.38;1.42;;;;;;;;;;5136814;27;20249;-95
2023/08/08 14:47:04;;;;;;;3.13;1.67;;;;;;;;;;5137701;27;20640;-95
2023/08/08 14:49:31;;;;;;;2.80;1.52;;;;;;;;;;5136153;27;20201;-95
2023/08/08 14:52:00;;;;;;;4.25;1.73;;;;;;;;;;5135949;27;20220;-95
2023/08/08 14:54:27;;;;;;;3.65;1.23;;;;;;;;;;5135926;27;20193;-95
2023/08/08 14:56:54;;;;;;;3.65;1.35;;;;;;;;;;5135242;27;20276;-96
2023/08/08 14:59:21;;;;;;;3.15;1.58;;;;;;;;;;5135800;27;20261;-95
2023/08/08 15:01:49;;;;;;;3.70;1.48;;;;;;;;;;5135734;27;20284;-94
2023/08/08 15:04:16;;;;;;;2.78;1.40;;;;;;;;;;5135750;27;20265;-95
2023/08/08 15:06:43;;;;;;;3.67;1.40;;;;;;;;;;5135924;27;20225;-96
2023/08/08 15:09:13;;;;;;;4.50;1.30;;;;;;;;;;5135389;27;20232;-95
2023/08/08 15:11:40;;;;;;;6.95;1.50;;;;;;;;;;5135321;27;20227;-95